createdAt,value
2018-12-05T00:01:19.218Z,8.93
2018-12-05T00:03:25.303Z,8.96
2018-12-05T00:05:32.477Z,8.97
2018-12-05T00:07:39.619Z,8.97
2018-12-05T00:09:46.530Z,8.99
2018-12-05T00:11:53.172Z,8.98
2018-12-05T00:13:59.602Z,8.99
2018-12-05T00:16:05.907Z,8.99
2018-12-05T00:36:25.617Z,8.94
2018-12-05T00:38:31.753Z,8.93
2018-12-05T00:40:37.974Z,8.95
2018-12-05T00:42:44.046Z,8.96
2018-12-05T00:44:50.124Z,8.99
2018-12-05T00:46:56.202Z,9.02
2018-12-05T00:49:02.411Z,9.04
2018-12-05T00:51:08.869Z,9.06
2018-12-05T00:53:15.599Z,9.09
2018-12-05T00:55:21.770Z,9.11
2018-12-05T00:57:27.789Z,9.10
2018-12-05T00:59:34.557Z,9.09
2018-12-05T01:01:40.721Z,9.08
2018-12-05T01:03:46.779Z,9.08
2018-12-05T01:05:52.964Z,9.07
2018-12-05T01:07:59.213Z,9.06
2018-12-05T01:10:07.230Z,9.03
2018-12-05T01:12:14.442Z,9.02
2018-12-05T01:14:20.995Z,9.02
2018-12-05T01:16:27.102Z,9.02
2018-12-05T01:20:50.327Z,9.01
2018-12-05T01:22:56.354Z,8.98
2018-12-05T01:25:02.834Z,8.98
2018-12-05T01:27:08.872Z,8.98
2018-12-05T01:29:15.111Z,8.96
2018-12-05T01:31:23.041Z,8.95
2018-12-05T01:33:30.286Z,8.93
2018-12-05T01:35:38.691Z,8.92
2018-12-05T01:37:46.797Z,8.92
2018-12-05T01:39:52.916Z,8.91
2018-12-05T01:41:59.137Z,8.91
2018-12-05T01:44:05.534Z,8.87
2018-12-05T01:46:11.711Z,8.86
2018-12-05T01:48:18.572Z,8.83
2018-12-05T01:50:24.816Z,8.82
2018-12-05T01:52:30.988Z,8.80
2018-12-05T01:54:37.349Z,8.76
2018-12-05T01:56:43.497Z,8.75
2018-12-05T01:58:49.657Z,8.72
2018-12-05T02:00:55.950Z,8.69
2018-12-05T02:03:02.171Z,8.68
2018-12-05T02:05:08.429Z,8.67
2018-12-05T02:07:14.647Z,8.65
2018-12-05T02:09:20.755Z,8.65
2018-12-05T02:11:27.049Z,8.62
2018-12-05T02:13:33.276Z,8.59
2018-12-05T02:15:40.358Z,8.58
2018-12-05T02:17:47.342Z,8.55
2018-12-05T02:19:53.871Z,8.53
2018-12-05T02:22:01.445Z,8.52
2018-12-05T02:24:07.887Z,8.52
2018-12-05T02:26:14.133Z,8.53
2018-12-05T02:28:21.061Z,8.54
2018-12-05T02:30:27.576Z,8.54
2018-12-05T02:32:33.706Z,8.52
2018-12-05T02:34:40.892Z,8.51
2018-12-05T02:36:47.004Z,8.50
2018-12-05T02:38:54.108Z,8.49
2018-12-05T02:41:00.218Z,8.47
2018-12-05T02:43:06.406Z,8.45
2018-12-05T02:45:12.596Z,8.44
2018-12-05T02:47:18.843Z,8.43
2018-12-05T02:49:25.026Z,8.41
2018-12-05T02:51:31.122Z,8.39
2018-12-05T02:53:37.874Z,8.36
2018-12-05T02:55:43.955Z,8.35
2018-12-05T02:57:50.089Z,8.35
2018-12-05T02:59:56.126Z,8.33
2018-12-05T03:02:02.416Z,8.32
2018-12-05T03:04:08.522Z,8.32
2018-12-05T03:06:14.615Z,8.32
2018-12-05T03:08:20.827Z,8.32
2018-12-05T03:10:26.853Z,8.31
2018-12-05T03:12:32.930Z,8.31
2018-12-05T03:14:38.986Z,8.31
2018-12-05T03:16:45.724Z,8.31
2018-12-05T03:18:51.980Z,8.32
2018-12-05T03:20:58.031Z,8.34
2018-12-05T03:23:04.243Z,8.34
2018-12-05T03:25:10.604Z,8.37
2018-12-05T03:27:16.854Z,8.36
2018-12-05T03:29:22.939Z,8.37
2018-12-05T03:31:29.775Z,8.37
2018-12-05T03:33:35.810Z,8.36
2018-12-05T03:35:42.549Z,8.36
2018-12-05T03:37:48.688Z,8.37
2018-12-05T03:39:55.415Z,8.34
2018-12-05T03:42:01.755Z,8.34
2018-12-05T03:44:08.702Z,8.33
2018-12-05T03:46:15.040Z,8.32
2018-12-05T03:48:21.109Z,8.32
2018-12-05T03:50:27.465Z,8.32
2018-12-05T03:52:33.667Z,8.32
2018-12-05T03:54:39.697Z,8.33
2018-12-05T03:56:45.753Z,8.36
2018-12-05T03:58:51.843Z,8.36
2018-12-05T04:00:57.991Z,8.36
2018-12-05T04:03:04.199Z,8.36
2018-12-05T04:05:10.285Z,8.37
2018-12-05T04:07:16.448Z,8.37
2018-12-05T04:09:22.658Z,8.38
2018-12-05T04:11:29.387Z,8.38
2018-12-05T04:13:35.553Z,8.38
2018-12-05T04:15:41.617Z,8.38
2018-12-05T04:17:48.074Z,8.37
2018-12-05T04:19:54.169Z,8.36
2018-12-05T04:22:00.219Z,8.36
2018-12-05T04:24:06.343Z,8.37
2018-12-05T04:26:12.569Z,8.38
2018-12-05T04:28:18.626Z,8.40
2018-12-05T04:30:24.751Z,8.41
2018-12-05T04:32:33.244Z,8.45
2018-12-05T04:34:39.352Z,8.46
2018-12-05T04:36:45.649Z,8.48
2018-12-05T04:38:53.479Z,8.50
2018-12-05T04:41:01.654Z,8.52
2018-12-05T04:43:07.832Z,8.55
2018-12-05T04:45:14.050Z,8.56
2018-12-05T04:47:20.228Z,8.58
2018-12-05T04:49:26.282Z,8.60
2018-12-05T04:51:33.870Z,8.60
2018-12-05T04:53:41.028Z,8.60
2018-12-05T04:55:47.974Z,8.62
2018-12-05T04:57:55.223Z,8.61
2018-12-05T05:00:01.353Z,8.61
2018-12-05T05:02:07.574Z,8.62
2018-12-05T05:04:13.645Z,8.63
2018-12-05T05:06:19.838Z,8.62
2018-12-05T05:08:25.956Z,8.63
2018-12-05T05:10:32.070Z,8.63
2018-12-05T05:12:38.154Z,8.60
2018-12-05T05:14:44.260Z,8.58
2018-12-05T05:16:50.489Z,8.54
2018-12-05T05:18:56.741Z,8.55
2018-12-05T05:21:02.937Z,8.54
2018-12-05T05:23:09.746Z,8.56
2018-12-05T05:25:15.979Z,8.55
2018-12-05T05:27:23.344Z,8.55
2018-12-05T05:29:29.525Z,8.55
2018-12-05T05:31:35.800Z,8.58
2018-12-05T05:33:42.068Z,8.59
2018-12-05T05:35:48.305Z,8.62
2018-12-05T05:37:54.682Z,8.63
2018-12-05T05:40:00.846Z,8.64
2018-12-05T05:42:07.550Z,8.64
2018-12-05T05:44:13.594Z,8.66
2018-12-05T05:46:19.746Z,8.68
2018-12-05T05:48:25.886Z,8.69
2018-12-05T05:50:31.993Z,8.70
2018-12-05T05:52:38.119Z,8.71
2018-12-05T05:54:44.604Z,8.71
2018-12-05T05:56:50.689Z,8.73
2018-12-05T05:58:56.782Z,8.74
2018-12-05T06:01:02.864Z,8.75
2018-12-05T06:03:10.924Z,8.75
2018-12-05T06:05:17.050Z,8.74
2018-12-05T06:07:23.121Z,8.72
2018-12-05T06:09:29.367Z,8.71
2018-12-05T06:11:35.785Z,8.71
2018-12-05T06:13:41.991Z,8.71
2018-12-05T06:15:48.162Z,8.72
2018-12-05T06:17:54.335Z,8.74
2018-12-05T06:20:00.460Z,8.75
2018-12-05T06:22:06.665Z,8.76
2018-12-05T06:24:12.734Z,8.76
2018-12-05T06:26:18.790Z,8.77
2018-12-05T06:28:24.874Z,8.78
2018-12-05T06:30:31.147Z,8.79
2018-12-05T06:32:37.263Z,8.80
2018-12-05T06:37:01.339Z,8.83
2018-12-05T06:39:08.992Z,8.83
2018-12-05T06:41:15.075Z,8.82
2018-12-05T06:43:22.187Z,8.80
2018-12-05T06:45:28.243Z,8.80
2018-12-05T06:47:34.375Z,8.78
2018-12-05T06:49:40.614Z,8.77
2018-12-05T06:51:46.676Z,8.74
2018-12-05T06:53:52.766Z,8.72
2018-12-05T06:55:58.831Z,8.70
2018-12-05T06:58:04.927Z,8.68
2018-12-05T07:00:11.312Z,8.68
2018-12-05T07:02:17.509Z,8.66
2018-12-05T07:04:23.627Z,8.68
2018-12-05T07:06:29.801Z,8.70
2018-12-05T07:08:36.452Z,8.69
2018-12-05T07:10:42.514Z,8.71
2018-12-05T07:12:48.794Z,8.72
2018-12-05T07:14:55.144Z,8.74
2018-12-05T07:17:01.301Z,8.76
2018-12-05T07:19:07.487Z,8.77
2018-12-05T07:21:13.862Z,8.78
2018-12-05T07:23:20.056Z,8.78
2018-12-05T07:25:26.150Z,8.77
2018-12-05T07:27:32.267Z,8.76
2018-12-05T07:29:38.393Z,8.76
2018-12-05T07:31:44.459Z,8.77
2018-12-05T07:33:50.644Z,8.78
2018-12-05T07:35:58.834Z,8.80
2018-12-05T07:38:05.090Z,8.81
2018-12-05T07:40:12.957Z,8.81
2018-12-05T07:42:20.699Z,8.81
2018-12-05T07:44:28.040Z,8.83
2018-12-05T07:46:34.176Z,8.85
2018-12-05T07:48:40.243Z,8.86
2018-12-05T07:50:47.250Z,8.88
2018-12-05T07:52:56.649Z,8.87
2018-12-05T07:55:02.835Z,8.86
2018-12-05T07:57:09.001Z,8.85
2018-12-05T07:59:15.222Z,8.86
2018-12-05T08:01:21.456Z,8.86
2018-12-05T08:03:27.581Z,8.87
2018-12-05T08:05:33.698Z,8.88
2018-12-05T08:07:39.955Z,8.88
2018-12-05T08:09:46.115Z,8.90
2018-12-05T08:11:53.240Z,8.90
2018-12-05T08:13:59.381Z,8.87
2018-12-05T08:16:05.703Z,8.88
2018-12-05T08:18:11.754Z,8.88
2018-12-05T08:20:17.906Z,8.90
2018-12-05T08:22:23.994Z,8.93
2018-12-05T08:24:30.091Z,8.96
2018-12-05T08:26:36.216Z,9.00
2018-12-05T08:28:42.333Z,9.02
2018-12-05T08:30:48.576Z,9.05
2018-12-05T08:32:54.635Z,9.08
2018-12-05T08:35:00.795Z,9.09
2018-12-05T08:37:06.905Z,9.11
2018-12-05T08:39:13.068Z,9.12
2018-12-05T08:41:20.413Z,9.14
2018-12-05T08:43:26.524Z,9.15
2018-12-05T08:45:34.247Z,9.15
2018-12-05T08:47:40.417Z,9.17
2018-12-05T08:49:46.635Z,9.16
2018-12-05T08:51:52.828Z,9.17
2018-12-05T08:53:58.916Z,9.16
2018-12-05T08:56:05.167Z,9.18
2018-12-05T08:58:11.309Z,9.24
2018-12-05T09:00:17.617Z,9.27
2018-12-05T09:02:23.758Z,9.31
2018-12-05T09:04:29.893Z,9.34
2018-12-05T09:06:36.031Z,9.41
2018-12-05T09:08:42.333Z,9.45
2018-12-05T09:10:48.904Z,9.49
2018-12-05T09:12:54.957Z,9.53
2018-12-05T09:15:02.290Z,9.56
2018-12-05T09:17:09.642Z,9.59
2018-12-05T09:19:15.806Z,9.60
2018-12-05T09:21:22.127Z,9.61
2018-12-05T09:23:29.276Z,9.63
2018-12-05T09:25:35.766Z,9.65
2018-12-05T09:27:42.193Z,9.69
2018-12-05T09:29:48.449Z,9.69
2018-12-05T09:31:54.588Z,9.71
2018-12-05T09:34:00.739Z,9.74
2018-12-05T09:36:08.973Z,9.77
2018-12-05T09:38:15.296Z,9.84
2018-12-05T09:40:21.513Z,9.90
2018-12-05T09:42:28.878Z,9.96
2018-12-05T09:44:35.128Z,10.02
2018-12-05T09:46:48.749Z,10.04
2018-12-05T09:48:55.619Z,10.08
2018-12-05T09:51:01.802Z,10.12
2018-12-05T09:53:07.935Z,10.14
2018-12-05T09:55:14.030Z,10.16
2018-12-05T09:57:20.153Z,10.18
2018-12-05T09:59:26.266Z,10.20
2018-12-05T10:01:32.572Z,10.22
2018-12-05T10:03:38.676Z,10.22
2018-12-05T10:05:44.779Z,10.24
2018-12-05T10:07:51.023Z,10.23
2018-12-05T10:09:57.194Z,10.24
2018-12-05T10:12:03.460Z,10.26
2018-12-05T10:14:09.650Z,10.29
2018-12-05T10:16:15.898Z,10.33
2018-12-05T10:18:22.329Z,10.38
2018-12-05T10:20:28.801Z,10.40
2018-12-05T10:22:34.859Z,10.45
2018-12-05T10:24:41.048Z,10.49
2018-12-05T10:26:47.161Z,10.52
2018-12-05T10:28:53.384Z,10.55
2018-12-05T10:31:00.011Z,10.60
2018-12-05T10:33:06.926Z,10.66
2018-12-05T10:35:13.337Z,10.73
2018-12-05T10:37:19.501Z,10.79
2018-12-05T10:39:25.856Z,10.85
2018-12-05T10:41:32.188Z,10.90
2018-12-05T10:43:38.441Z,10.93
2018-12-05T10:45:44.659Z,10.97
2018-12-05T10:47:54.356Z,10.97
2018-12-05T10:50:00.582Z,10.97
2018-12-05T10:52:07.013Z,10.97
2018-12-05T10:54:13.919Z,10.97
2018-12-05T10:56:20.681Z,10.96
2018-12-05T10:58:26.808Z,10.97
2018-12-05T11:00:38.820Z,10.96
2018-12-05T11:02:50.522Z,10.96
2018-12-05T11:05:01.797Z,10.96
2018-12-05T11:07:12.208Z,10.95
2018-12-05T11:09:25.006Z,10.95
2018-12-05T11:11:37.314Z,10.96
2018-12-05T11:13:49.614Z,10.98
2018-12-05T11:18:54.858Z,11.00
2018-12-05T11:21:06.239Z,11.01
2018-12-05T11:23:21.402Z,11.04
2018-12-05T11:25:28.419Z,11.09
2018-12-05T11:27:35.235Z,11.14
2018-12-05T11:29:42.651Z,11.19
2018-12-05T11:31:49.241Z,11.22
2018-12-05T11:33:55.466Z,11.26
2018-12-05T11:36:01.621Z,11.30
2018-12-05T11:38:08.940Z,11.34
2018-12-05T11:40:15.345Z,11.38
2018-12-05T11:42:21.466Z,11.40
2018-12-05T11:44:28.259Z,11.42
2018-12-05T11:46:34.478Z,11.45
2018-12-05T11:48:48.841Z,11.48
2018-12-05T11:50:55.346Z,11.51
2018-12-05T11:53:01.523Z,11.54
2018-12-05T11:55:07.871Z,11.55
2018-12-05T11:57:14.484Z,11.52
2018-12-05T11:59:20.689Z,11.52
2018-12-05T12:01:26.806Z,11.52
2018-12-05T12:03:33.083Z,11.52
2018-12-05T12:05:41.254Z,11.52
2018-12-05T12:07:47.809Z,11.51
2018-12-05T12:09:53.943Z,11.51
2018-12-05T12:12:00.133Z,11.53
2018-12-05T12:14:07.513Z,11.54
2018-12-05T12:16:14.823Z,11.53
2018-12-05T12:18:21.604Z,11.53
2018-12-05T12:20:27.739Z,11.54
2018-12-05T12:22:34.547Z,11.54
2018-12-05T12:24:41.445Z,11.55
2018-12-05T12:26:47.830Z,11.56
2018-12-05T12:28:54.698Z,11.57
2018-12-05T12:31:00.927Z,11.60
2018-12-05T12:33:07.139Z,11.62
2018-12-05T12:35:13.322Z,11.64
2018-12-05T12:37:20.046Z,11.66
2018-12-05T12:39:26.240Z,11.69
2018-12-05T12:41:32.591Z,11.71
2018-12-05T12:43:41.981Z,11.74
2018-12-05T12:45:48.079Z,11.75
2018-12-05T12:47:54.214Z,11.76
2018-12-05T12:50:08.314Z,11.77
2018-12-05T12:52:15.372Z,11.77
2018-12-05T12:54:21.615Z,11.80
2018-12-05T12:56:28.065Z,11.81
2018-12-05T12:58:34.287Z,11.82
2018-12-05T13:00:41.334Z,11.85
2018-12-05T13:02:47.466Z,11.86
2018-12-05T13:04:53.794Z,11.88
2018-12-05T13:06:59.884Z,11.89
2018-12-05T13:09:08.414Z,11.90
2018-12-05T13:11:15.740Z,11.90
2018-12-05T13:13:22.249Z,11.91
2018-12-05T13:15:28.411Z,11.92
2018-12-05T13:17:34.515Z,11.93
2018-12-05T13:19:41.121Z,11.96
2018-12-05T13:21:52.662Z,11.97
2018-12-05T13:24:05.271Z,11.99
2018-12-05T13:26:16.718Z,11.98
2018-12-05T13:28:28.229Z,12.00
2018-12-05T13:31:17.224Z,12.02
2018-12-05T13:34:06.156Z,12.00
2018-12-05T13:36:35.231Z,12.01
2018-12-05T13:38:41.408Z,12.02
2018-12-05T13:40:47.619Z,12.04
2018-12-05T13:42:53.871Z,12.07
2018-12-05T13:45:00.098Z,12.12
2018-12-05T13:47:06.324Z,12.18
2018-12-05T13:49:12.551Z,12.23
2018-12-05T13:51:19.607Z,12.27
2018-12-05T13:53:25.728Z,12.31
2018-12-05T13:55:31.933Z,12.37
2018-12-05T13:57:38.072Z,12.40
2018-12-05T13:59:45.472Z,12.41
2018-12-05T14:01:51.786Z,12.42
2018-12-05T14:03:57.899Z,12.45
2018-12-05T14:06:04.221Z,12.43
2018-12-05T14:08:10.872Z,12.44
2018-12-05T14:10:17.408Z,12.44
2018-12-05T14:12:27.471Z,12.43
2018-12-05T14:14:56.789Z,12.42
2018-12-05T14:17:25.772Z,12.37
2018-12-05T14:19:32.110Z,12.33
2018-12-05T14:21:38.369Z,12.30
2018-12-05T14:23:44.695Z,12.27
2018-12-05T14:25:51.027Z,12.26
2018-12-05T14:27:57.237Z,12.22
2018-12-05T14:30:03.653Z,12.20
2018-12-05T14:32:09.827Z,12.20
2018-12-05T14:34:16.106Z,12.20
2018-12-05T14:36:22.224Z,12.19
2018-12-05T14:38:28.459Z,12.18
2018-12-05T14:42:50.941Z,12.17
2018-12-05T14:44:57.080Z,12.17
2018-12-05T14:47:03.545Z,12.16
2018-12-05T14:49:09.735Z,12.17
2018-12-05T14:51:15.924Z,12.18
2018-12-05T14:53:22.077Z,12.17
2018-12-05T14:55:28.287Z,12.16
2018-12-05T14:57:34.448Z,12.15
2018-12-05T14:59:40.822Z,12.14
2018-12-05T15:01:47.067Z,12.13
2018-12-05T15:04:15.889Z,12.13
2018-12-05T15:06:44.230Z,12.14
2018-12-05T15:08:50.609Z,12.10
2018-12-05T15:10:56.749Z,12.09
2018-12-05T15:13:02.938Z,12.08
2018-12-05T15:15:09.115Z,12.08
2018-12-05T15:17:15.289Z,12.08
2018-12-05T15:19:22.423Z,12.07
2018-12-05T15:21:28.640Z,12.07
2018-12-05T15:23:35.014Z,12.07
2018-12-05T15:25:41.216Z,12.07
2018-12-05T15:27:47.315Z,12.07
2018-12-05T15:29:53.549Z,12.05
2018-12-05T15:31:59.989Z,12.02
2018-12-05T15:34:06.133Z,12.00
2018-12-05T15:36:12.484Z,12.00
2018-12-05T15:38:18.875Z,11.99
2018-12-05T15:40:25.116Z,11.98
2018-12-05T15:42:31.966Z,11.99
2018-12-05T15:44:38.120Z,11.99
2018-12-05T15:46:44.397Z,11.96
2018-12-05T15:48:52.626Z,11.97
2018-12-05T15:50:58.769Z,11.95
2018-12-05T15:53:05.039Z,11.95
2018-12-05T15:55:11.235Z,11.96
2018-12-05T15:57:18.254Z,11.96
2018-12-05T15:59:26.447Z,11.96
2018-12-05T16:01:32.594Z,11.94
2018-12-05T16:03:43.105Z,11.93
2018-12-05T16:06:11.646Z,11.94
2018-12-05T16:08:40.990Z,11.92
2018-12-05T16:10:47.445Z,11.89
2018-12-05T16:12:53.725Z,11.86
2018-12-05T16:14:59.978Z,11.84
2018-12-05T16:17:06.229Z,11.83
2018-12-05T16:19:12.641Z,11.82
2018-12-05T16:21:18.865Z,11.80
2018-12-05T16:23:25.094Z,11.78
2018-12-05T16:25:31.345Z,11.77
2018-12-05T16:27:38.523Z,11.76
2018-12-05T16:29:44.861Z,11.75
2018-12-05T16:31:51.312Z,11.75
2018-12-05T16:33:57.570Z,11.75
2018-12-05T16:36:03.801Z,11.74
2018-12-05T16:38:10.802Z,11.74
2018-12-05T16:42:35.955Z,11.72
2018-12-05T16:44:42.227Z,11.72
2018-12-05T16:46:48.464Z,11.73
2018-12-05T16:51:11.659Z,11.72
2018-12-05T16:53:18.875Z,11.72
2018-12-05T16:55:25.087Z,11.72
2018-12-05T16:57:31.970Z,11.72
2018-12-05T16:59:38.327Z,11.71
2018-12-05T17:01:44.500Z,11.70
2018-12-05T17:03:50.717Z,11.71
2018-12-05T17:06:19.954Z,11.70
2018-12-05T17:08:48.751Z,11.69
2018-12-05T17:10:54.911Z,11.66
2018-12-05T17:13:01.409Z,11.65
2018-12-05T17:15:07.872Z,11.63
2018-12-05T17:17:14.047Z,11.63
2018-12-05T17:19:20.257Z,11.61
2018-12-05T17:21:26.608Z,11.61
2018-12-05T17:23:32.862Z,11.61
2018-12-05T17:25:39.034Z,11.59
2018-12-05T17:27:45.260Z,11.57
2018-12-05T17:29:51.559Z,11.57
2018-12-05T17:31:57.791Z,11.56
2018-12-05T17:34:04.013Z,11.55
2018-12-05T17:36:10.168Z,11.55
2018-12-05T17:38:16.648Z,11.55
2018-12-05T17:40:23.030Z,11.55
2018-12-05T17:42:30.055Z,11.55
2018-12-05T17:44:36.239Z,11.56
2018-12-05T17:46:42.348Z,11.56
2018-12-05T17:48:48.557Z,11.58
2018-12-05T17:53:12.001Z,11.57
2018-12-05T17:55:18.202Z,11.56
2018-12-05T17:57:24.550Z,11.54
2018-12-05T17:59:30.857Z,11.54
2018-12-05T18:01:37.112Z,11.54
2018-12-05T18:03:43.335Z,11.53
2018-12-05T18:08:08.183Z,11.52
2018-12-05T18:10:14.380Z,11.51
2018-12-05T18:12:20.706Z,11.51
2018-12-05T18:14:26.925Z,11.52
2018-12-05T18:18:50.515Z,11.51
2018-12-05T18:20:56.871Z,11.52
2018-12-05T18:23:03.018Z,11.52
2018-12-05T18:25:09.505Z,11.52
2018-12-05T18:27:15.649Z,11.53
2018-12-05T18:29:21.818Z,11.54
2018-12-05T18:31:28.064Z,11.55
2018-12-05T18:35:51.778Z,11.58
2018-12-05T18:37:57.948Z,11.61
2018-12-05T18:40:04.365Z,11.61
2018-12-05T18:42:10.600Z,11.61
2018-12-05T18:44:17.620Z,11.58
2018-12-05T18:46:23.900Z,11.57
2018-12-05T18:48:30.029Z,11.56
2018-12-05T18:50:36.271Z,11.53
2018-12-05T18:52:43.797Z,11.51
2018-12-05T18:54:50.197Z,11.50
2018-12-05T18:56:56.493Z,11.48
2018-12-05T18:59:02.759Z,11.47
2018-12-05T19:01:08.942Z,11.46
2018-12-05T19:03:15.930Z,11.47
2018-12-05T19:05:22.385Z,11.49
2018-12-05T19:07:28.607Z,11.50
2018-12-05T19:09:35.205Z,11.51
2018-12-05T19:11:43.716Z,11.51
2018-12-05T19:13:55.244Z,11.51
2018-12-05T19:16:01.499Z,11.51
2018-12-05T19:18:07.879Z,11.52
2018-12-05T19:20:14.200Z,11.52
2018-12-05T19:22:20.395Z,11.54
2018-12-05T19:24:26.611Z,11.56
2018-12-05T19:26:56.720Z,11.58
2018-12-05T19:29:25.953Z,11.58
2018-12-05T19:31:33.057Z,11.55
2018-12-05T19:33:41.585Z,11.56
2018-12-05T19:35:48.114Z,11.56
2018-12-05T19:37:54.907Z,11.57
2018-12-05T19:40:01.298Z,11.57
2018-12-05T19:42:07.491Z,11.58
2018-12-05T19:44:13.714Z,11.56
2018-12-05T19:46:20.299Z,11.56
2018-12-05T19:48:27.301Z,11.56
2018-12-05T19:50:33.652Z,11.56
2018-12-05T19:52:40.085Z,11.54
2018-12-05T19:54:46.671Z,11.55
2018-12-05T19:56:53.086Z,11.58
2018-12-05T19:58:59.559Z,11.57
2018-12-05T20:01:06.759Z,11.58
2018-12-05T20:03:14.002Z,11.59
2018-12-05T20:05:20.253Z,11.57
2018-12-05T20:07:26.667Z,11.58
2018-12-05T20:09:33.133Z,11.58
2018-12-05T20:11:39.691Z,11.58
2018-12-05T20:13:46.346Z,11.58
2018-12-05T20:15:52.864Z,11.57
2018-12-05T20:17:59.088Z,11.55
2018-12-05T20:20:06.519Z,11.52
2018-12-05T20:22:13.095Z,11.50
2018-12-05T20:24:20.118Z,11.47
2018-12-05T20:26:27.409Z,11.48
2018-12-05T20:28:33.745Z,11.45
2018-12-05T20:30:40.053Z,11.42
2018-12-05T20:32:46.509Z,11.40
2018-12-05T20:37:50.247Z,11.40
2018-12-05T20:39:56.503Z,11.35
2018-12-05T20:42:04.868Z,11.30
2018-12-05T20:44:33.318Z,11.28
2018-12-05T20:47:02.822Z,11.26
2018-12-05T20:49:09.294Z,11.25
2018-12-05T20:51:15.572Z,11.25
2018-12-05T20:53:21.899Z,11.23
2018-12-05T20:55:28.247Z,11.22
2018-12-05T20:57:34.612Z,11.22
2018-12-05T20:59:43.087Z,11.20
2018-12-05T21:01:49.603Z,11.21
2018-12-05T21:03:55.815Z,11.19
2018-12-05T21:06:02.309Z,11.17
2018-12-05T21:08:08.467Z,11.14
2018-12-05T21:10:15.847Z,11.11
2018-12-05T21:12:22.114Z,11.09
2018-12-05T21:14:28.625Z,11.08
2018-12-05T21:16:57.780Z,11.07
2018-12-05T21:21:43.220Z,11.04
2018-12-05T21:23:49.458Z,11.05
2018-12-05T21:25:55.680Z,11.03
2018-12-05T21:28:01.840Z,11.04
2018-12-05T21:30:08.686Z,11.04
2018-12-05T21:32:15.085Z,11.05
2018-12-05T21:34:21.303Z,11.08
2018-12-05T21:36:27.509Z,11.10
2018-12-05T21:38:33.717Z,11.12
2018-12-05T21:40:40.126Z,11.12
2018-12-05T21:42:46.367Z,11.12
2018-12-05T21:44:52.496Z,11.12
2018-12-05T21:46:58.680Z,11.13
2018-12-05T21:49:04.949Z,11.14
2018-12-05T21:51:11.488Z,11.16
2018-12-05T21:53:17.578Z,11.17
2018-12-05T21:55:24.944Z,11.18
2018-12-05T21:57:31.274Z,11.19
2018-12-05T21:59:38.398Z,11.20
2018-12-05T22:01:44.797Z,11.21
2018-12-05T22:03:51.132Z,11.17
2018-12-05T22:05:59.256Z,11.17
2018-12-05T22:08:05.406Z,11.15
2018-12-05T22:10:11.749Z,11.16
2018-12-05T22:12:18.030Z,11.17
2018-12-05T22:14:24.156Z,11.16
2018-12-05T22:16:52.866Z,11.15
2018-12-05T22:19:22.102Z,11.14
2018-12-05T22:21:28.193Z,11.13
2018-12-05T22:23:34.348Z,11.14
2018-12-05T22:26:02.769Z,11.15
2018-12-05T22:28:31.931Z,11.15
2018-12-05T22:30:38.280Z,11.15
2018-12-05T22:32:44.361Z,11.15
2018-12-05T22:34:50.611Z,11.15
2018-12-05T22:36:56.735Z,11.13
2018-12-05T22:39:03.035Z,11.10
2018-12-05T22:41:10.493Z,11.08
2018-12-05T22:43:16.615Z,11.08
2018-12-05T22:45:22.840Z,11.07
2018-12-05T22:47:28.979Z,11.10
2018-12-05T22:49:35.083Z,11.11
2018-12-05T22:51:41.725Z,11.13
2018-12-05T22:53:47.846Z,11.12
2018-12-05T22:55:53.965Z,11.12
2018-12-05T22:58:00.101Z,11.13
2018-12-05T23:00:11.342Z,11.15
2018-12-05T23:02:18.726Z,11.16
2018-12-05T23:04:24.860Z,11.17
2018-12-05T23:06:31.102Z,11.16
2018-12-05T23:08:37.443Z,11.15
2018-12-05T23:10:43.621Z,11.13
2018-12-05T23:12:49.942Z,11.13
2018-12-05T23:14:56.043Z,11.13
2018-12-05T23:17:02.325Z,11.13
2018-12-05T23:19:08.712Z,11.12
2018-12-05T23:21:15.042Z,11.11
2018-12-05T23:23:21.214Z,11.10
2018-12-05T23:25:56.123Z,11.07
2018-12-05T23:30:43.692Z,11.00
2018-12-05T23:32:49.822Z,10.98
2018-12-05T23:34:56.175Z,10.98
2018-12-05T23:37:02.325Z,10.97
2018-12-05T23:39:08.922Z,10.99
2018-12-05T23:41:15.161Z,10.98
2018-12-05T23:43:21.427Z,10.97
2018-12-05T23:45:28.026Z,10.98
2018-12-05T23:47:34.172Z,10.99
2018-12-05T23:49:40.323Z,10.98
2018-12-05T23:51:46.449Z,10.97
2018-12-05T23:53:52.585Z,10.96
2018-12-05T23:55:58.693Z,10.95
2018-12-05T23:58:04.854Z,10.96
